Time;durP1;ratioP1;P1;durP2;ratioP2;P2;SDS_P1;SDS_P2;PMS_P1;PMS_P2;Temp;Humidity;BMP_temperature;BMP_pressure;BME280_temperature;BME280_humidity;BME280_pressure;Samples;Min_cycle;Max_cycle;Signal;HPM_P1;HPM_P2
2022/08/08 00:01:38;;;;;;;8.13;3.03;;;;;;;16.81;71.23;102491.09;4954768;28;20062;-74
2022/08/08 00:04:20;;;;;;;5.65;3.38;;;;;;;16.80;71.48;102496.72;4954960;29;20031;-72
2022/08/08 00:06:51;;;;;;;6.05;2.80;;;;;;;16.82;71.94;102494.66;4950070;29;20039;-71
2022/08/08 00:09:54;;;;;;;11.40;3.03;;;;;;;16.81;71.77;102493.81;4940119;29;20087;-72
2022/08/08 00:12:26;;;;;;;8.88;2.95;;;;;;;16.81;71.68;102491.09;4953636;29;20403;-73
2022/08/08 00:14:57;;;;;;;9.55;2.92;;;;;;;16.79;71.39;102489.56;4936734;29;20101;-73
2022/08/08 00:17:28;;;;;;;6.15;2.67;;;;;;;16.75;71.50;102494.53;4949031;28;20391;-73
2022/08/08 00:20:00;;;;;;;7.63;2.92;;;;;;;16.73;72.09;102484.84;4941910;29;20542;-73
2022/08/08 00:22:38;;;;;;;7.35;2.67;;;;;;;16.69;72.13;102484.34;4946792;29;20098;-72
2022/08/08 00:25:07;;;;;;;10.75;3.10;;;;;;;16.69;72.51;102484.34;4935731;29;20031;-72
2022/08/08 00:27:34;;;;;;;10.02;2.97;;;;;;;16.68;72.42;102485.38;4950615;29;20035;-74
2022/08/08 00:30:07;;;;;;;8.55;2.90;;;;;;;16.64;72.20;102475.91;4948828;29;20027;-72
2022/08/08 00:32:42;;;;;;;8.07;2.63;;;;;;;16.61;72.82;102476.25;4948077;29;20534;-73
2022/08/08 00:35:28;;;;;;;9.32;3.33;;;;;;;16.56;72.94;102478.69;4930624;29;20082;-73
2022/08/08 00:38:09;;;;;;;10.48;2.95;;;;;;;16.48;73.10;102476.03;4930637;29;20386;-73
2022/08/08 00:40:54;;;;;;;6.85;2.97;;;;;;;16.43;73.80;102471.16;4953489;29;20474;-71
2022/08/08 00:43:40;;;;;;;8.65;2.97;;;;;;;16.44;74.00;102475.56;4895959;29;20070;-73
2022/08/08 00:46:14;;;;;;;5.15;2.63;;;;;;;16.41;73.84;102470.50;4923160;29;20038;-73
2022/08/08 00:49:05;;;;;;;10.60;3.00;;;;;;;16.37;73.85;102464.56;4940610;29;20030;-72
2022/08/08 00:52:09;;;;;;;7.75;3.05;;;;;;;16.33;74.26;102468.66;4941256;29;20035;-73
2022/08/08 00:54:45;;;;;;;5.63;3.10;;;;;;;16.29;74.11;102471.91;4949715;29;20423;-72
2022/08/08 00:57:41;;;;;;;6.95;2.90;;;;;;;16.29;74.39;102466.50;4922671;29;20066;-72
2022/08/08 01:00:18;;;;;;;8.65;3.10;;;;;;;16.22;74.24;102460.94;4944994;29;20035;-73
2022/08/08 01:03:07;;;;;;;3.83;2.65;;;;;;;16.17;74.84;102468.78;4944171;29;20081;-71
2022/08/08 01:05:57;;;;;;;9.32;3.22;;;;;;;16.13;74.84;102468.28;4928172;29;20371;-72
2022/08/08 01:08:34;;;;;;;4.68;2.92;;;;;;;16.11;75.13;102464.03;4953078;29;20435;-72
2022/08/08 01:11:18;;;;;;;10.05;3.25;;;;;;;16.08;75.10;102467.13;4935409;29;20103;-72
2022/08/08 01:14:09;;;;;;;8.73;3.33;;;;;;;16.03;75.26;102467.66;4952157;28;20027;-73
2022/08/08 01:16:44;;;;;;;6.15;2.75;;;;;;;16.02;75.18;102464.09;4951956;29;20035;-72
2022/08/08 01:19:32;;;;;;;6.30;2.80;;;;;;;15.98;75.24;102465.50;4935703;29;20031;-71
2022/08/08 01:22:25;;;;;;;9.27;3.67;;;;;;;15.91;75.39;102460.97;4951881;29;20054;-72
2022/08/08 01:25:27;;;;;;;3.63;2.35;;;;;;;15.87;75.96;102456.88;4935334;29;20051;-73
2022/08/08 01:28:02;;;;;;;4.43;3.20;;;;;;;15.82;76.19;102457.41;4951091;29;20047;-73
2022/08/08 01:30:59;;;;;;;11.88;2.83;;;;;;;15.76;76.32;102452.69;4935348;29;20502;-71
2022/08/08 01:33:31;;;;;;;8.18;3.05;;;;;;;15.75;77.08;102453.72;4934379;29;20400;-71
2022/08/08 01:36:07;;;;;;;8.73;2.78;;;;;;;15.75;77.18;102451.88;4951359;29;20114;-71
2022/08/08 01:39:03;;;;;;;9.55;3.60;;;;;;;15.72;77.44;102451.38;4917037;29;20110;-72
2022/08/08 01:42:00;;;;;;;5.65;3.10;;;;;;;15.73;77.38;102450.34;4930606;29;20031;-72
2022/08/08 01:45:03;;;;;;;5.28;3.35;;;;;;;15.71;77.20;102453.22;4945805;29;20059;-72
2022/08/08 01:48:06;;;;;;;6.80;2.97;;;;;;;15.75;77.17;102457.28;4950761;29;20035;-72
2022/08/08 01:50:46;;;;;;;6.65;2.80;;;;;;;15.78;76.95;102456.09;4951731;28;20031;-72
2022/08/08 01:53:18;;;;;;;6.93;3.17;;;;;;;15.79;77.29;102455.91;4951582;29;20031;-72
2022/08/08 01:56:14;;;;;;;5.60;3.13;;;;;;;15.78;76.76;102459.66;4920578;29;20031;-72
2022/08/08 01:59:05;;;;;;;13.15;3.42;;;;;;;15.73;77.25;102458.50;4937247;29;20126;-73
2022/08/08 02:01:48;;;;;;;5.88;2.90;;;;;;;15.68;77.79;102461.69;4935517;29;20051;-72
2022/08/08 02:04:27;;;;;;;9.77;3.80;;;;;;;15.63;77.57;102463.25;4929715;29;20168;-73
2022/08/08 02:07:10;;;;;;;6.75;3.50;;;;;;;15.63;78.03;102472.22;4928051;29;20031;-72
2022/08/08 02:09:37;;;;;;;6.72;3.13;;;;;;;15.62;77.85;102481.41;4917506;29;20330;-72
2022/08/08 02:12:09;;;;;;;4.68;2.65;;;;;;;15.61;77.66;102474.25;4912278;29;20036;-72
2022/08/08 02:14:40;;;;;;;9.90;3.25;;;;;;;15.56;77.30;102477.53;4934491;29;20039;-72
2022/08/08 02:17:20;;;;;;;8.73;3.42;;;;;;;15.55;77.58;102475.81;4951062;29;20023;-72
2022/08/08 02:19:56;;;;;;;4.32;2.65;;;;;;;15.54;77.76;102482.28;4932349;29;20140;-72
2022/08/08 02:22:44;;;;;;;6.13;2.97;;;;;;;15.58;77.90;102475.47;4951170;29;20039;-73
2022/08/08 02:25:17;;;;;;;7.78;2.78;;;;;;;15.57;77.60;102471.06;4942264;29;20190;-72
2022/08/08 02:28:02;;;;;;;9.32;2.72;;;;;;;15.56;77.37;102474.81;4950883;28;20051;-72
2022/08/08 02:30:40;;;;;;;7.15;3.10;;;;;;;15.54;77.76;102468.72;4934687;29;20073;-72
2022/08/08 02:33:13;;;;;;;7.13;3.00;;;;;;;15.54;78.14;102473.28;4952567;29;20027;-72
2022/08/08 02:36:06;;;;;;;8.10;2.80;;;;;;;15.53;78.06;102475.16;4936056;29;20046;-73
2022/08/08 02:38:46;;;;;;;7.47;2.90;;;;;;;15.51;78.07;102471.78;4953674;29;20098;-71
2022/08/08 02:41:24;;;;;;;5.65;3.20;;;;;;;15.50;78.47;102475.50;4935059;29;20077;-73
2022/08/08 02:44:16;;;;;;;7.97;2.90;;;;;;;15.48;78.43;102476.69;4949637;29;20490;-73
2022/08/08 02:46:45;;;;;;;9.20;3.38;;;;;;;15.41;78.51;102479.25;4928514;29;20058;-73
2022/08/08 02:49:41;;;;;;;8.80;3.00;;;;;;;15.36;78.73;102473.50;4953172;29;20360;-73
2022/08/08 02:52:23;;;;;;;11.07;3.28;;;;;;;15.33;79.64;102473.88;4952994;29;20035;-73
2022/08/08 02:55:24;;;;;;;7.53;2.95;;;;;;;15.30;79.45;102471.50;4935408;29;20130;-72
2022/08/08 02:58:21;;;;;;;8.85;2.75;;;;;;;15.27;79.55;102471.81;4930869;29;20055;-73
2022/08/08 03:00:55;;;;;;;9.52;3.30;;;;;;;15.31;79.59;102473.19;4936416;29;20047;-73
2022/08/08 03:03:44;;;;;;;10.35;2.83;;;;;;;15.34;79.66;102481.81;4956393;29;20039;-73
2022/08/08 03:06:42;;;;;;;7.38;3.17;;;;;;;15.37;79.64;102484.16;4933237;29;20143;-71
2022/08/08 03:09:56;;;;;;;7.85;3.20;;;;;;;15.38;79.34;102482.34;4903387;29;20143;-72
2022/08/08 03:13:06;;;;;;;3.95;2.78;;;;;;;15.41;79.32;102490.13;4934794;29;20216;-73
2022/08/08 03:15:49;;;;;;;8.68;3.25;;;;;;;15.40;78.80;102491.13;4947458;29;20043;-73
2022/08/08 03:18:17;;;;;;;8.52;2.90;;;;;;;15.40;78.91;102487.56;4956605;29;20027;-72
2022/08/08 03:20:43;;;;;;;6.57;2.80;;;;;;;15.37;79.65;102494.19;4956232;28;20052;-72
2022/08/08 03:23:09;;;;;;;3.90;2.85;;;;;;;15.35;79.50;102488.13;4953097;28;20118;-72
2022/08/08 03:25:35;;;;;;;8.10;2.70;;;;;;;15.33;79.68;102488.28;4954595;29;20041;-72
2022/08/08 03:28:07;;;;;;;8.10;2.90;;;;;;;15.31;79.66;102486.75;4955122;29;20031;-72
2022/08/08 03:30:32;;;;;;;5.43;3.05;;;;;;;15.28;79.79;102484.38;4932849;29;20070;-72
2022/08/08 03:35:42;;;;;;;10.10;3.30;;;;;;;15.22;80.02;102488.66;4949674;29;20098;-73
2022/08/08 03:38:08;;;;;;;6.63;3.17;;;;;;;15.20;79.97;102493.38;4953818;29;20043;-72
2022/08/08 03:40:34;;;;;;;11.32;3.40;;;;;;;15.17;80.42;102487.47;4945462;28;20031;-72
2022/08/08 03:42:59;;;;;;;9.38;2.90;;;;;;;15.13;80.34;102482.38;4951743;29;20387;-72
2022/08/08 03:45:26;;;;;;;7.80;3.20;;;;;;;15.09;80.54;102491.88;4954466;29;20035;-73
2022/08/08 03:48:02;;;;;;;14.20;3.80;;;;;;;15.07;81.11;102490.34;4946787;29;20342;-72
2022/08/08 03:50:28;;;;;;;9.30;3.00;;;;;;;15.05;81.48;102490.50;4932575;29;20029;-72
2022/08/08 03:52:54;;;;;;;12.13;3.58;;;;;;;15.04;81.25;102494.25;4947287;29;20656;-73
2022/08/08 03:55:21;;;;;;;7.15;2.90;;;;;;;15.03;81.21;102491.69;4952902;29;20019;-73
2022/08/08 03:57:49;;;;;;;7.85;3.30;;;;;;;15.02;81.35;102487.31;4950164;29;20055;-71
2022/08/08 04:00:17;;;;;;;7.90;3.33;;;;;;;15.02;81.50;102501.72;4931633;29;20027;-72
2022/08/08 04:02:42;;;;;;;;;;;;;;;15.05;81.59;102501.34;4952620;29;20089;-71
2022/08/08 04:05:08;;;;;;;4.75;3.08;;;;;;;15.04;81.00;102507.81;4942597;29;20075;-72
2022/08/08 04:07:36;;;;;;;8.43;3.10;;;;;;;15.02;80.62;102509.84;4944511;29;20078;-72
2022/08/08 04:10:01;;;;;;;15.75;4.20;;;;;;;15.01;81.40;102518.13;4947788;29;20347;-72
2022/08/08 04:12:26;;;;;;;8.90;3.33;;;;;;;14.98;81.38;102508.50;4950267;28;20114;-71
2022/08/08 04:14:52;;;;;;;5.30;3.78;;;;;;;14.95;81.42;102507.97;4955392;29;20078;-72
2022/08/08 04:17:17;;;;;;;12.02;3.50;;;;;;;14.92;81.43;102514.59;4954671;29;20485;-71
2022/08/08 04:19:42;;;;;;;6.47;3.63;;;;;;;14.90;81.77;102512.06;4951600;28;20086;-71
2022/08/08 04:22:08;;;;;;;9.75;3.78;;;;;;;14.93;82.67;102513.59;4952982;29;20075;-72
2022/08/08 04:24:33;;;;;;;8.70;3.58;;;;;;;14.94;82.34;102515.28;4951768;29;20082;-72
2022/08/08 04:26:58;;;;;;;6.70;3.25;;;;;;;14.98;81.85;102523.91;4946659;28;20067;-74
2022/08/08 04:29:24;;;;;;;8.73;3.42;;;;;;;14.95;81.46;102525.09;4951056;29;20125;-72
2022/08/08 04:31:50;;;;;;;10.48;3.28;;;;;;;14.98;81.80;102518.47;4946945;28;20066;-73
2022/08/08 04:34:15;;;;;;;9.75;3.55;;;;;;;14.97;81.45;102523.06;4948608;28;20118;-73
2022/08/08 04:36:40;;;;;;;10.68;3.50;;;;;;;14.95;81.33;102524.25;4951757;29;20031;-73
2022/08/08 04:39:06;;;;;;;9.45;3.70;;;;;;;14.98;81.70;102532.03;4954704;28;20050;-72
2022/08/08 04:41:31;;;;;;;12.18;4.35;;;;;;;15.00;81.70;102530.00;4953186;28;20142;-73
2022/08/08 04:43:56;;;;;;;11.77;3.78;;;;;;;14.99;81.93;102534.59;4950662;29;20062;-73
2022/08/08 04:46:21;;;;;;;8.55;3.70;;;;;;;15.02;82.24;102531.53;4953372;29;20056;-73
2022/08/08 04:48:47;;;;;;;10.68;3.95;;;;;;;15.07;82.52;102534.59;4952651;29;20083;-73
2022/08/08 04:51:12;;;;;;;10.40;4.00;;;;;;;15.13;82.50;102542.03;4951934;29;20031;-71
2022/08/08 04:53:37;;;;;;;10.95;3.05;;;;;;;15.21;81.96;102543.06;4952751;29;20442;-72
2022/08/08 04:56:03;;;;;;;10.27;4.25;;;;;;;15.27;81.61;102539.63;4953546;28;20364;-72
2022/08/08 04:58:28;;;;;;;6.85;3.80;;;;;;;15.33;81.54;102536.25;4952500;29;20039;-72
2022/08/08 05:00:54;;;;;;;9.68;3.85;;;;;;;15.38;81.30;102539.31;4950596;28;20035;-72
2022/08/08 05:03:19;;;;;;;16.42;3.88;;;;;;;15.46;80.84;102536.56;4953159;29;20031;-73
2022/08/08 05:05:44;;;;;;;7.50;4.20;;;;;;;15.56;80.54;102537.22;4952185;29;20042;-71
2022/08/08 05:08:12;;;;;;;10.15;4.18;;;;;;;15.67;80.26;102536.00;4948526;29;20062;-72
2022/08/08 05:10:37;;;;;;;10.60;4.20;;;;;;;15.82;80.07;102540.72;4954260;28;20490;-72
2022/08/08 05:13:03;;;;;;;12.80;5.20;;;;;;;15.97;79.47;102541.69;4953338;29;20059;-72
2022/08/08 05:15:28;;;;;;;9.07;3.85;;;;;;;16.10;78.69;102533.00;4936414;29;20035;-73
2022/08/08 05:17:53;;;;;;;6.50;3.63;;;;;;;16.16;78.70;102543.97;4953594;29;20023;-72
2022/08/08 05:20:19;;;;;;;8.52;3.88;;;;;;;16.21;78.55;102547.00;4951738;28;20398;-71
2022/08/08 05:22:45;;;;;;;7.82;3.65;;;;;;;16.33;78.27;102541.19;4953483;28;20550;-72
2022/08/08 05:25:11;;;;;;;9.27;3.90;;;;;;;16.47;77.93;102540.41;4953363;29;20075;-71
2022/08/08 05:27:36;;;;;;;13.75;4.07;;;;;;;16.62;77.64;102545.94;4936247;29;20493;-72
2022/08/08 05:30:03;;;;;;;5.43;3.35;;;;;;;16.73;77.44;102550.94;4952635;29;20035;-72
2022/08/08 05:32:30;;;;;;;7.57;3.83;;;;;;;16.88;76.56;102543.72;4950430;29;20038;-72
2022/08/08 05:34:59;;;;;;;10.40;3.75;;;;;;;16.96;76.24;102550.13;4953103;28;20027;-72
2022/08/08 05:37:27;;;;;;;7.22;3.83;;;;;;;17.07;75.99;102555.13;4953668;29;20030;-72
2022/08/08 05:39:53;;;;;;;;;;;;;;;17.21;75.81;102556.19;4936459;29;20039;-72
2022/08/08 05:42:22;;;;;;;8.18;3.38;;;;;;;17.34;74.78;102557.25;4954194;29;19918;-71
2022/08/08 05:44:48;;;;;;;10.50;3.63;;;;;;;17.45;74.50;102558.66;4920606;29;20188;-72
2022/08/08 05:47:15;;;;;;;11.30;3.58;;;;;;;17.55;73.99;102555.69;4953490;29;20106;-73
2022/08/08 05:49:43;;;;;;;7.72;3.55;;;;;;;17.57;73.33;102561.78;4952692;29;20027;-73
2022/08/08 05:52:09;;;;;;;6.00;3.47;;;;;;;17.64;73.10;102562.75;4953257;29;20506;-72
2022/08/08 05:54:34;;;;;;;7.72;3.70;;;;;;;17.73;73.66;102553.44;4953154;29;20139;-71
2022/08/08 05:56:59;;;;;;;9.45;3.72;;;;;;;17.96;72.79;102560.72;4952415;29;20457;-71
2022/08/08 05:59:25;;;;;;;13.65;3.83;;;;;;;18.23;72.19;102558.31;4933775;29;20031;-71
2022/08/08 06:01:55;;;;;;;11.55;3.30;;;;;;;18.66;71.74;102559.22;4952221;28;20063;-73
2022/08/08 06:04:23;;;;;;;9.70;2.95;;;;;;;19.19;70.97;102558.91;4951395;29;20031;-73
2022/08/08 06:06:51;;;;;;;11.65;3.42;;;;;;;19.94;68.43;102562.81;4952996;29;20030;-73
2022/08/08 06:09:17;;;;;;;14.25;3.63;;;;;;;20.95;63.54;102573.00;4952874;29;20031;-72
2022/08/08 06:11:43;;;;;;;6.55;2.75;;;;;;;21.87;60.74;102574.00;4930577;29;20432;-74
2022/08/08 06:14:08;;;;;;;8.90;3.22;;;;;;;22.78;56.94;102565.59;4948045;29;20126;-71
2022/08/08 06:16:35;;;;;;;11.45;3.03;;;;;;;23.64;55.20;102585.16;4919693;29;20470;-72
2022/08/08 06:19:01;;;;;;;11.38;3.05;;;;;;;24.29;52.84;102577.22;4953169;29;20030;-73
2022/08/08 06:21:27;;;;;;;10.48;3.38;;;;;;;24.63;50.95;102582.31;4951141;29;20035;-72
2022/08/08 06:23:53;;;;;;;13.02;2.95;;;;;;;25.24;49.58;102586.66;4952233;28;20446;-73
2022/08/08 06:26:20;;;;;;;31.70;3.80;;;;;;;25.72;47.53;102584.75;4953652;28;20027;-72
2022/08/08 06:28:52;;;;;;;10.20;3.67;;;;;;;26.09;46.73;102585.31;4934687;29;20035;-72
2022/08/08 06:31:21;;;;;;;10.43;3.58;;;;;;;26.26;46.96;102591.75;4953156;28;20454;-72
2022/08/08 06:33:57;;;;;;;12.98;3.00;;;;;;;27.10;43.88;102595.81;4952575;29;20031;-72
2022/08/08 06:36:36;;;;;;;13.52;3.00;;;;;;;27.49;42.62;102587.56;4934582;29;20074;-73
2022/08/08 06:39:03;;;;;;;15.45;2.72;;;;;;;27.83;41.98;102590.31;4952477;29;20098;-72
2022/08/08 06:41:32;;;;;;;15.60;3.35;;;;;;;27.61;42.34;102593.03;4952492;29;20032;-73
2022/08/08 06:44:01;;;;;;;9.52;3.10;;;;;;;27.88;41.83;102602.28;4952104;29;20027;-72
2022/08/08 06:46:26;;;;;;;14.93;3.13;;;;;;;27.90;40.79;102596.50;4952126;29;20035;-71
2022/08/08 06:48:51;;;;;;;10.82;2.40;;;;;;;28.78;39.13;102596.41;4952054;29;20035;-73
2022/08/08 06:51:18;;;;;;;11.50;2.97;;;;;;;28.65;39.83;102606.00;4952275;29;20130;-73
2022/08/08 06:53:44;;;;;;;7.43;2.35;;;;;;;29.10;38.64;102597.31;4935136;29;20023;-72
2022/08/08 06:56:09;;;;;;;12.77;2.63;;;;;;;29.24;38.37;102602.41;4935613;29;20031;-73
2022/08/08 06:58:35;;;;;;;9.45;2.53;;;;;;;29.14;38.49;102603.16;4934616;29;20026;-71
2022/08/08 07:01:02;;;;;;;17.08;4.05;;;;;;;28.63;39.73;102591.59;4949421;28;20085;-73
2022/08/08 07:03:40;;;;;;;;;;;;;;;29.22;38.68;102604.59;4951984;29;20459;-71
2022/08/08 07:06:09;;;;;;;9.75;2.75;;;;;;;29.25;38.44;102599.38;4939232;28;20538;-73
2022/08/08 07:08:38;;;;;;;13.60;2.55;;;;;;;29.00;38.74;102597.19;4954404;28;20482;-72
2022/08/08 07:11:05;;;;;;;15.93;3.10;;;;;;;29.24;38.02;102607.94;4938082;29;20039;-73
2022/08/08 07:13:41;;;;;;;;;;;;;;;28.72;39.17;102603.00;4951906;29;20110;-72
2022/08/08 07:16:34;;;;;;;13.73;3.13;;;;;;;29.19;38.61;102607.91;4952524;28;20009;-72
2022/08/08 07:19:04;;;;;;;11.15;3.10;;;;;;;29.00;39.14;102605.50;4939444;28;20447;-73
2022/08/08 07:21:39;;;;;;;14.43;2.88;;;;;;;29.78;37.37;102609.72;4950779;28;20059;-73
2022/08/08 07:24:20;;;;;;;12.70;2.38;;;;;;;29.99;36.64;102605.97;4951823;29;20304;-72
2022/08/08 07:26:46;;;;;;;16.85;3.00;;;;;;;30.05;36.96;102606.81;4940752;28;20167;-74
2022/08/08 07:29:12;;;;;;;10.90;2.70;;;;;;;29.90;36.60;102611.16;4941087;28;20039;-72
2022/08/08 07:31:39;;;;;;;10.55;2.88;;;;;;;29.27;38.84;102616.56;4933830;29;20378;-74
2022/08/08 07:34:04;;;;;;;11.95;2.92;;;;;;;29.18;38.37;102612.63;4950829;28;20119;-74
2022/08/08 07:36:30;;;;;;;10.00;2.60;;;;;;;29.12;37.90;102610.06;4952034;28;20118;-73
2022/08/08 07:38:57;;;;;;;10.48;3.30;;;;;;;28.88;38.40;102618.69;4953996;28;20043;-73
2022/08/08 07:41:23;;;;;;;26.95;3.53;;;;;;;28.69;38.59;102622.94;4917441;29;20046;-74
2022/08/08 07:43:48;;;;;;;12.82;2.33;;;;;;;28.54;39.07;102621.69;4935564;29;20058;-73
2022/08/08 07:46:14;;;;;;;12.35;2.65;;;;;;;28.13;39.82;102620.34;4952860;28;20098;-73
2022/08/08 07:48:40;;;;;;;15.02;3.65;;;;;;;27.92;41.06;102619.22;4956306;29;20035;-72
2022/08/08 07:51:07;;;;;;;5.75;2.40;;;;;;;28.36;40.52;102622.00;4955291;28;20046;-72
2022/08/08 07:53:40;;;;;;;17.42;3.10;;;;;;;28.91;39.17;102620.94;4955490;28;20027;-72
2022/08/08 07:56:08;;;;;;;10.27;2.83;;;;;;;29.48;38.31;102620.31;4939419;29;20066;-72
2022/08/08 07:58:39;;;;;;;16.25;3.15;;;;;;;29.86;37.65;102634.19;4940468;29;20023;-73
2022/08/08 08:01:09;;;;;;;13.52;3.10;;;;;;;29.93;36.74;102632.84;4946009;28;20047;-73
2022/08/08 08:03:41;;;;;;;12.07;2.70;;;;;;;29.48;36.84;102639.75;4944581;29;20039;-74
2022/08/08 08:06:08;;;;;;;12.45;3.17;;;;;;;28.10;40.04;102632.75;4940495;28;20039;-73
2022/08/08 08:09:04;;;;;;;15.25;4.07;;;;;;;26.33;44.07;102641.31;4953970;28;20023;-71
2022/08/08 08:11:33;;;;;;;12.27;3.15;;;;;;;25.28;46.22;102639.41;4955506;29;20041;-73
2022/08/08 08:14:08;;;;;;;11.43;3.20;;;;;;;24.51;48.41;102646.44;4955392;28;20067;-76
2022/08/08 08:16:35;;;;;;;10.43;3.10;;;;;;;23.73;50.74;102638.00;4939150;29;20086;-73
2022/08/08 08:19:09;;;;;;;15.45;3.53;;;;;;;23.90;51.60;102644.56;4932949;29;20106;-73
2022/08/08 08:21:43;;;;;;;8.57;3.05;;;;;;;24.64;50.10;102644.56;4921417;29;20046;-73
2022/08/08 08:24:09;;;;;;;9.50;3.00;;;;;;;25.25;48.31;102648.13;4955234;28;20652;-73
2022/08/08 08:26:34;;;;;;;12.85;2.83;;;;;;;26.26;46.11;102657.97;4957800;28;20058;-73
2022/08/08 08:29:00;;;;;;;13.27;3.22;;;;;;;26.34;45.24;102653.16;4974765;28;20466;-71
2022/08/08 08:31:26;;;;;;;11.00;2.90;;;;;;;25.78;45.69;102650.81;4954855;28;20023;-72
2022/08/08 08:33:51;;;;;;;8.38;2.67;;;;;;;25.06;47.12;102652.84;4955028;29;20114;-72
2022/08/08 08:36:17;;;;;;;10.85;3.10;;;;;;;24.57;48.64;102652.91;4955231;29;20419;-71
2022/08/08 08:38:43;;;;;;;14.40;3.10;;;;;;;23.95;50.33;102650.22;4941027;28;20041;-72
2022/08/08 08:41:11;;;;;;;22.08;3.50;;;;;;;23.56;50.93;102655.00;4973372;28;20458;-72
2022/08/08 08:43:37;;;;;;;15.73;2.70;;;;;;;23.13;52.59;102658.50;4955201;28;20031;-72
2022/08/08 08:46:08;;;;;;;8.88;2.67;;;;;;;22.91;53.18;102663.50;4945505;28;20475;-71
2022/08/08 08:48:35;;;;;;;14.25;3.10;;;;;;;22.79;53.44;102651.50;4974184;28;20035;-71
2022/08/08 08:51:01;;;;;;;8.57;2.50;;;;;;;22.79;53.53;102657.84;4974034;28;20190;-72
2022/08/08 08:53:27;;;;;;;11.57;2.42;;;;;;;22.77;54.22;102661.88;4936863;28;20039;-72
2022/08/08 08:55:55;;;;;;;5.18;2.50;;;;;;;22.58;54.34;102650.78;4954101;29;20038;-72
2022/08/08 08:58:31;;;;;;;12.18;2.78;;;;;;;22.45;54.45;102656.31;4935593;28;20041;-73
2022/08/08 09:00:59;;;;;;;11.20;3.08;;;;;;;22.29;55.36;102654.06;4953314;28;20098;-71
2022/08/08 09:03:25;;;;;;;9.93;2.67;;;;;;;22.20;55.73;102652.63;4952367;29;20165;-72
2022/08/08 09:05:51;;;;;;;16.05;3.08;;;;;;;22.04;56.42;102662.13;4953406;29;20472;-72
2022/08/08 09:08:17;;;;;;;7.75;2.75;;;;;;;22.47;57.75;102661.59;4936514;29;20501;-71
2022/08/08 09:10:42;;;;;;;10.50;3.25;;;;;;;23.64;53.83;102651.13;4953999;28;20067;-72
2022/08/08 09:13:08;;;;;;;9.38;2.72;;;;;;;25.00;49.97;102657.38;4935738;29;20042;-71
2022/08/08 09:15:34;;;;;;;6.32;2.05;;;;;;;26.83;45.65;102664.66;4956104;28;20125;-71
2022/08/08 09:18:00;;;;;;;3.67;1.65;;;;;;;28.53;40.86;102657.94;4953064;29;20111;-71
2022/08/08 09:20:26;;;;;;;9.55;2.03;;;;;;;29.04;38.72;102664.00;4954111;29;20066;-71
2022/08/08 09:22:55;;;;;;;5.80;1.90;;;;;;;29.23;37.23;102661.75;4952059;29;20497;-71
2022/08/08 09:25:20;;;;;;;5.43;1.73;;;;;;;29.62;36.34;102664.25;4952848;28;20486;-72
2022/08/08 09:27:46;;;;;;;13.07;1.83;;;;;;;30.18;35.82;102667.41;4953226;28;20110;-72
2022/08/08 09:30:13;;;;;;;11.73;2.60;;;;;;;30.83;34.54;102656.81;4941858;28;20042;-72
2022/08/08 09:32:49;;;;;;;10.02;2.80;;;;;;;31.16;33.57;102671.34;4952899;28;20564;-71
2022/08/08 09:35:19;;;;;;;6.10;1.73;;;;;;;31.16;33.36;102683.28;4953226;28;20043;-71
2022/08/08 09:38:15;;;;;;;9.63;1.85;;;;;;;31.31;32.51;102664.91;4952707;28;20538;-72
2022/08/08 09:40:41;;;;;;;6.63;2.13;;;;;;;31.90;31.77;102670.72;4904264;29;20040;-72
2022/08/08 09:43:15;;;;;;;6.40;1.70;;;;;;;32.66;30.14;102670.75;4917148;29;20039;-73
2022/08/08 09:45:44;;;;;;;4.47;1.38;;;;;;;33.04;29.15;102668.28;4952233;28;20030;-72
2022/08/08 09:48:09;;;;;;;9.30;1.50;;;;;;;32.77;29.56;102672.34;4963038;28;20024;-71
2022/08/08 09:50:36;;;;;;;;;;;;;;;32.33;30.07;102673.09;4953414;29;20044;-71
2022/08/08 09:53:03;;;;;;;8.37;1.67;;;;;;;32.34;29.85;102674.78;4952984;29;20406;-72
2022/08/08 09:55:29;;;;;;;6.40;1.50;;;;;;;32.19;30.09;102677.63;4952984;28;20505;-71
2022/08/08 09:58:14;;;;;;;8.80;1.77;;;;;;;31.79;30.34;102676.59;4952710;29;20027;-72
2022/08/08 10:00:40;;;;;;;5.68;1.88;;;;;;;31.27;31.91;102671.03;4948657;28;20038;-72
2022/08/08 10:03:06;;;;;;;10.70;1.70;;;;;;;30.42;32.20;102667.81;4946300;29;20035;-71
2022/08/08 10:05:36;;;;;;;5.47;1.60;;;;;;;30.10;33.26;102677.09;4932571;29;20036;-73
2022/08/08 10:08:03;;;;;;;6.95;1.88;;;;;;;30.20;33.38;102670.72;4940597;29;20027;-72
2022/08/08 10:10:35;;;;;;;5.88;1.70;;;;;;;30.51;33.11;102665.34;4953228;28;20039;-72
2022/08/08 10:13:15;;;;;;;7.85;1.70;;;;;;;31.94;30.23;102659.91;4952801;29;20106;-71
2022/08/08 10:15:47;;;;;;;4.20;1.83;;;;;;;31.61;30.02;102667.72;4970755;28;20027;-72
2022/08/08 10:18:23;;;;;;;4.40;1.70;;;;;;;30.30;32.26;102676.34;4970406;28;20441;-73
2022/08/08 10:20:52;;;;;;;6.40;1.67;;;;;;;30.22;33.07;102668.50;4965201;28;20023;-71
2022/08/08 10:23:22;;;;;;;11.45;2.33;;;;;;;31.10;31.59;102670.50;4953077;29;20371;-71
2022/08/08 10:25:48;;;;;;;7.13;2.03;;;;;;;30.56;32.38;102668.13;4917473;29;20044;-71
2022/08/08 10:28:17;;;;;;;9.33;1.93;;;;;;;30.81;31.17;102671.00;4942218;29;20019;-72
2022/08/08 10:30:54;;;;;;;6.78;1.70;;;;;;;30.83;31.68;102667.94;4938289;29;20070;-71
2022/08/08 10:33:26;;;;;;;;;;;;;;;31.95;30.02;102678.25;4953603;28;20491;-73
2022/08/08 10:35:55;;;;;;;4.68;2.00;;;;;;;32.38;29.44;102670.28;4936185;29;20143;-72
2022/08/08 10:38:20;;;;;;;3.15;1.45;;;;;;;31.83;29.51;102674.91;4935516;29;20431;-72
2022/08/08 10:40:50;;;;;;;7.77;2.13;;;;;;;31.91;29.56;102671.53;4918737;29;20031;-72
2022/08/08 10:43:16;;;;;;;7.72;2.00;;;;;;;32.42;29.37;102682.53;4952243;29;20487;-73
2022/08/08 10:45:43;;;;;;;14.73;1.83;;;;;;;31.78;29.99;102677.69;4939222;29;20074;-72
2022/08/08 10:48:10;;;;;;;13.13;1.42;;;;;;;31.34;31.21;102672.72;4934987;29;20423;-71
2022/08/08 10:50:36;;;;;;;7.70;1.60;;;;;;;31.80;29.97;102672.69;4952145;28;20082;-71
2022/08/08 10:53:03;;;;;;;6.45;1.65;;;;;;;31.92;29.68;102671.31;4952370;29;20035;-72
2022/08/08 10:55:29;;;;;;;4.28;1.63;;;;;;;31.97;29.59;102664.06;4952888;28;20046;-72
2022/08/08 10:57:59;;;;;;;4.27;1.73;;;;;;;31.69;30.00;102660.75;4952046;29;20483;-72
2022/08/08 11:00:26;;;;;;;5.00;1.88;;;;;;;31.71;29.80;102673.28;4961888;28;20101;-71
2022/08/08 11:02:52;;;;;;;6.10;1.52;;;;;;;32.15;29.87;102666.22;4971821;28;20321;-73
2022/08/08 11:05:18;;;;;;;8.20;2.10;;;;;;;31.99;29.15;102668.22;4953225;28;20035;-72
2022/08/08 11:07:48;;;;;;;4.47;1.63;;;;;;;31.95;29.58;102657.94;4954073;29;20093;-72
2022/08/08 11:10:16;;;;;;;6.43;1.60;;;;;;;31.65;29.45;102663.28;4949351;28;20027;-72
2022/08/08 11:12:47;;;;;;;9.68;1.75;;;;;;;32.15;29.90;102660.66;4953352;28;20118;-71
2022/08/08 11:15:15;;;;;;;5.88;1.70;;;;;;;32.22;28.94;102660.34;4951818;28;20035;-71
2022/08/08 11:17:41;;;;;;;9.38;1.80;;;;;;;32.93;28.78;102664.69;4951728;29;20499;-72
2022/08/08 11:20:08;;;;;;;13.57;1.90;;;;;;;32.76;27.92;102660.34;4941958;28;20039;-73
2022/08/08 11:22:34;;;;;;;7.13;2.05;;;;;;;32.20;29.60;102662.56;4937312;29;20070;-72
2022/08/08 11:25:01;;;;;;;7.33;1.80;;;;;;;32.03;29.06;102660.97;4955815;28;20037;-73
2022/08/08 11:27:32;;;;;;;8.07;1.70;;;;;;;31.83;29.10;102661.00;4939780;29;20031;-72
2022/08/08 11:30:02;;;;;;;7.93;1.70;;;;;;;31.93;29.42;102652.63;4957541;29;20030;-70
2022/08/08 11:32:30;;;;;;;13.38;2.22;;;;;;;32.67;29.41;102655.69;4955985;29;20111;-73
2022/08/08 11:35:09;;;;;;;5.80;1.80;;;;;;;32.23;29.50;102651.72;4955992;29;20035;-72
2022/08/08 11:37:35;;;;;;;5.68;1.48;;;;;;;32.63;27.95;102654.59;4943213;29;20130;-72
2022/08/08 11:40:02;;;;;;;3.38;1.67;;;;;;;32.50;28.21;102651.31;4955702;28;20062;-71
2022/08/08 11:42:28;;;;;;;;;;;;;;;32.48;28.49;102652.72;4938923;29;20023;-73
2022/08/08 11:44:56;;;;;;;4.35;1.65;;;;;;;32.91;27.53;102651.03;4955405;28;19918;-73
2022/08/08 11:47:23;;;;;;;9.85;1.52;;;;;;;33.43;26.34;102651.47;4955739;29;20043;-73
2022/08/08 11:49:54;;;;;;;9.75;1.85;;;;;;;32.95;27.47;102643.78;4955936;29;20047;-73